Latest Weather Observations for Wattamolla

IDN60801

Issued at 8:02 am EST Wednesday 2 September 2015 (issued every 30 minutes, with the page automatically refreshed every 10 minutes)

About weather observations | Map of weather stations | Latest weather observations for NSW | Other Formats
Station Details ID: 066208 Name: WATTAMOLLA AWS Lat: -34.14 Lon: 151.12 Height: 44.0 m
Data from the previous 72 hours. | See also: Recent months for locations in New South Wales
Date/Time
EST
Temp
°C
App
Temp
°C
Dew
Point
Rel
Hum
%
Delta-T
°C
Wind Press
QNH
hPa
Press
MSL
hPa
Rain
since 9 am
mm
Dir
 
Spd
km/h
Gust
km/h
Spd
kts
Gust
kts
02/08:00am - - - - - WNW 7 11 4 6 - - -
02/07:30am - - - - - NW 13 17 7 9 - - -
02/07:00am - - - - - W 17 19 9 10 - - -
02/06:30am - - - - - W 17 19 9 10 - - -
02/06:00am - - - - - NW 15 17 8 9 - - -
02/05:30am - - - - - W 13 15 7 8 - - -
02/05:00am - - - - - WSW 15 20 8 11 - - -
02/04:30am - - - - - W 17 26 9 14 - - -
02/04:00am - - - - - W 19 22 10 12 - - -
02/03:30am - - - - - W 22 28 12 15 - - -
02/03:00am - - - - - W 11 19 6 10 - - -
02/02:30am - - - - - W 17 22 9 12 - - -
02/02:00am - - - - - W 17 26 9 14 - - -
02/01:30am - - - - - W 17 20 9 11 - - -
02/01:00am - - - - - W 19 20 10 11 - - -
02/12:30am - - - - - W 17 20 9 11 - - -
02/12:00am - - - - - WNW 17 20 9 11 - - -
 
Date/Time
EST
Temp
°C
App
Temp
°C
Dew
Point
Rel
Hum
%
Delta-T
°C
Wind Press
QNH
hPa
Press
MSL
hPa
Rain
since 9 am
mm
Dir
 
Spd
km/h
Gust
km/h
Spd
kts
Gust
kts
01/11:30pm - - - - - W 20 22 11 12 - - -
01/11:00pm - - - - - NW 19 20 10 11 - - -
01/10:30pm - - - - - NW 17 20 9 11 - - -
01/10:00pm - - - - - SW 11 13 6 7 - - -
01/09:30pm - - - - - WSW 13 15 7 8 - - -
01/09:00pm - - - - - WSW 11 13 6 7 - - -
01/08:30pm - - - - - WSW 9 11 5 6 - - -
01/08:00pm - - - - - WSW 9 11 5 6 - - -
01/07:30pm - - - - - W 9 9 5 5 - - -
01/07:00pm - - - - - WNW 7 9 4 5 - - -
01/06:30pm - - - - - NW 6 11 3 6 - - -
01/06:00pm - - - - - WNW 2 7 1 4 - - -
01/05:30pm - - - - - SSE 7 11 4 6 - - -
01/05:00pm - - - - - SSE 9 13 5 7 - - -
01/04:30pm - - - - - SSE 11 13 6 7 - - -
01/04:00pm - - - - - S 13 17 7 9 - - -
01/03:30pm - - - - - SSE 13 17 7 9 - - -
01/03:00pm - - - - - S 11 15 6 8 - - -
01/02:30pm - - - - - SSE 13 19 7 10 - - -
01/02:00pm - - - - - SSE 15 22 8 12 - - -
01/01:30pm - - - - - SSE 17 24 9 13 - - -
01/01:00pm - - - - - S 19 24 10 13 - - -
01/12:30pm - - - - - S 20 26 11 14 - - -
01/12:00pm - - - - - S 20 28 11 15 - - -
01/11:30am - - - - - S 26 30 14 16 - - -
01/11:00am - - - - - S 28 32 15 17 - - -
01/10:30am - - - - - S 28 35 15 19 - - -
01/10:00am - - - - - S 24 35 13 19 - - -
01/09:30am - - - - - SSW 19 32 10 17 - - -
01/09:00am - - - - - SSW 17 24 9 13 - - -
01/08:30am - - - - - WSW 13 22 7 12 - - -
01/08:00am - - - - - W 15 26 8 14 - - -
01/07:30am - - - - - W 20 28 11 15 - - -
01/07:00am - - - - - W 20 32 11 17 - - -
01/06:30am - - - - - W 24 32 13 17 - - -
01/06:00am - - - - - W 22 30 12 16 - - -
01/05:30am - - - - - W 20 28 11 15 - - -
01/05:00am - - - - - W 17 22 9 12 - - -
01/04:30am - - - - - WNW 17 20 9 11 - - -
01/04:00am - - - - - W 17 22 9 12 - - -
01/03:30am - - - - - W 17 26 9 14 - - -
01/03:00am - - - - - W 20 30 11 16 - - -
01/02:30am - - - - - W 19 26 10 14 - - -
01/02:00am - - - - - W 19 24 10 13 - - -
01/01:30am - - - - - W 19 30 10 16 - - -
01/01:00am - - - - - W 19 26 10 14 - - -
01/12:30am - - - - - WSW 11 22 6 12 - - -
01/12:00am - - - - - W 20 24 11 13 - - -
 
Date/Time
EST
Temp
°C
App
Temp
°C
Dew
Point
Rel
Hum
%
Delta-T
°C
Wind Press
QNH
hPa
Press
MSL
hPa
Rain
since 9 am
mm
Dir
 
Spd
km/h
Gust
km/h
Spd
kts
Gust
kts
31/11:30pm - - - - - W 20 24 11 13 - - -
31/11:00pm - - - - - W 24 32 13 17 - - -
31/10:30pm - - - - - WNW 19 28 10 15 - - -
31/10:00pm - - - - - W 15 19 8 10 - - -
31/09:30pm - - - - - WSW 17 19 9 10 - - -
31/09:00pm - - - - - SW 13 19 7 10 - - -
31/08:30pm - - - - - WSW 15 22 8 12 - - -
31/08:00pm - - - - - WSW 17 20 9 11 - - -
31/07:30pm - - - - - S 19 30 10 16 - - -
31/07:00pm - - - - - S 32 37 17 20 - - -
31/06:30pm - - - - - S 32 37 17 20 - - -
31/06:00pm - - - - - S 33 41 18 22 - - -
31/05:30pm - - - - - S 33 41 18 22 - - -
31/05:00pm - - - - - S 33 43 18 23 - - -
31/04:30pm - - - - - S 32 39 17 21 - - -
31/04:00pm - - - - - S 33 41 18 22 - - -
31/03:30pm - - - - - S 35 44 19 24 - - -
31/03:00pm - - - - - S 37 46 20 25 - - -
31/02:30pm - - - - - S 33 41 18 22 - - -
31/02:00pm - - - - - S 32 39 17 21 - - -
31/01:30pm - - - - - S 35 41 19 22 - - -
31/01:00pm - - - - - S 32 39 17 21 - - -
31/12:30pm - - - - - S 33 35 18 19 - - -
31/12:00pm - - - - - S 30 35 16 19 - - -
31/11:30am - - - - - S 32 37 17 20 - - -
31/11:00am - - - - - S 35 37 19 20 - - -
31/10:30am - - - - - S 33 39 18 21 - - -
31/10:00am - - - - - S 33 44 18 24 - - -
31/09:32am - - - - - S 30 48 16 26 - - -
31/09:30am - - - - - S 32 48 17 26 - - -
31/09:29am - - - - - S 30 48 16 26 - - -
31/09:00am - - - - - S 35 50 19 27 - - -
31/08:30am - - - - - S 30 48 16 26 - - -
31/08:29am - - - - - S 30 48 16 26 - - -
31/08:00am - - - - - S 30 39 16 21 - - -
31/07:30am - - - - - S 30 46 16 25 - - -
31/07:00am - - - - - S 28 46 15 25 - - -
31/06:53am - - - - - S 28 46 15 25 - - -
31/06:30am - - - - - S 35 48 19 26 - - -
31/06:00am - - - - - S 48 56 26 30 - - -
31/05:30am - - - - - S 48 54 26 29 - - -
31/05:00am - - - - - S 33 48 18 26 - - -
31/04:30am - - - - - S 35 50 19 27 - - -
31/04:00am - - - - - S 37 48 20 26 - - -
31/03:30am - - - - - S 33 54 18 29 - - -
31/03:25am - - - - - S 32 54 17 29 - - -
31/03:00am - - - - - S 33 44 18 24 - - -
31/02:30am - - - - - S 41 54 22 29 - - -
31/02:00am - - - - - S 32 46 17 25 - - -
31/01:30am - - - - - S 35 46 19 25 - - -
31/01:00am - - - - - S 44 54 24 29 - - -
31/12:30am - - - - - S 39 52 21 28 - - -
31/12:00am - - - - - S 39 52 21 28 - - -
 
Date/Time
EST
Temp
°C
App
Temp
°C
Dew
Point
Rel
Hum
%
Delta-T
°C
Wind Press
QNH
hPa
Press
MSL
hPa
Rain
since 9 am
mm
Dir
 
Spd
km/h
Gust
km/h
Spd
kts
Gust
kts
30/11:30pm - - - - - S 35 48 19 26 - - -
30/11:00pm - - - - - S 30 44 16 24 - - -
30/10:30pm - - - - - S 20 30 11 16 - - -
30/10:00pm - - - - - SSW 17 26 9 14 - - -
30/09:30pm - - - - - S 19 30 10 16 - - -
30/09:00pm - - - - - S 30 43 16 23 - - -
30/08:30pm - - - - - S 33 48 18 26 - - -
30/08:00pm - - - - - S 48 56 26 30 - - -
30/07:30pm - - - - - S 46 52 25 28 - - -
30/07:00pm - - - - - S 41 56 22 30 - - -
30/06:30pm - - - - - S 43 50 23 27 - - -
30/06:00pm - - - - - S 41 48 22 26 - - -
30/05:30pm - - - - - S 43 52 23 28 - - -
30/05:00pm - - - - - S 41 50 22 27 - - -
30/04:30pm - - - - - S 46 57 25 31 - - -
30/04:00pm - - - - - S 46 56 25 30 - - -
30/03:30pm - - - - - S 43 52 23 28 - - -
30/03:00pm - - - - - S 41 48 22 26 - - -
30/02:30pm - - - - - S 41 50 22 27 - - -
30/02:00pm - - - - - S 41 48 22 26 - - -
30/01:30pm - - - - - S 39 48 21 26 - - -
30/01:00pm - - - - - S 41 52 22 28 - - -
30/12:30pm - - - - - S 39 48 21 26 - - -
30/12:00pm - - - - - S 37 44 20 24 - - -
30/11:30am - - - - - S 33 43 18 23 - - -
30/11:00am - - - - - S 33 43 18 23 - - -
30/10:30am - - - - - S 33 43 18 23 - - -
30/10:00am - - - - - S 35 48 19 26 - - -
30/09:30am - - - - - S 37 46 20 25 - - -
30/09:00am - - - - - S 37 48 20 26 - - -
30/08:30am - - - - - S 35 46 19 25 - - -

Other Formats:

Comma delimited format used in spreadsheet applications
http://www.bom.gov.au/fwo/IDN60801/IDN60801.95752.axf

JavaScript Object Notation format (JSON) in row-major order
http://www.bom.gov.au/fwo/IDN60801/IDN60801.95752.json